sensor_id;sensor_type;location;lat;lon;timestamp;P1;durP1;ratioP1;P2;durP2;ratioP2
18568;SDS011;14780;48.316;-1.050;2023-10-19T00:02:24;8.05;;;3.05;;
18568;SDS011;14780;48.316;-1.050;2023-10-19T00:05:09;6.30;;;3.13;;
18568;SDS011;14780;48.316;-1.050;2023-10-19T00:07:54;8.70;;;3.53;;
18568;SDS011;14780;48.316;-1.050;2023-10-19T00:10:41;6.40;;;3.00;;
18568;SDS011;14780;48.316;-1.050;2023-10-19T00:13:28;7.10;;;3.05;;
18568;SDS011;14780;48.316;-1.050;2023-10-19T00:16:13;7.93;;;3.10;;
18568;SDS011;14780;48.316;-1.050;2023-10-19T00:19:01;6.68;;;3.40;;
18568;SDS011;14780;48.316;-1.050;2023-10-19T00:21:47;7.90;;;3.28;;
18568;SDS011;14780;48.316;-1.050;2023-10-19T00:24:35;5.87;;;2.93;;
18568;SDS011;14780;48.316;-1.050;2023-10-19T00:27:20;7.05;;;3.10;;
18568;SDS011;14780;48.316;-1.050;2023-10-19T00:30:07;6.73;;;3.10;;
18568;SDS011;14780;48.316;-1.050;2023-10-19T00:32:54;6.22;;;3.03;;
18568;SDS011;14780;48.316;-1.050;2023-10-19T00:35:39;7.57;;;3.03;;
18568;SDS011;14780;48.316;-1.050;2023-10-19T00:38:30;8.88;;;3.35;;
18568;SDS011;14780;48.316;-1.050;2023-10-19T00:41:22;6.75;;;3.10;;
18568;SDS011;14780;48.316;-1.050;2023-10-19T00:44:13;5.85;;;2.90;;
18568;SDS011;14780;48.316;-1.050;2023-10-19T00:47:06;5.93;;;2.80;;
18568;SDS011;14780;48.316;-1.050;2023-10-19T00:49:56;7.13;;;2.88;;
18568;SDS011;14780;48.316;-1.050;2023-10-19T00:52:46;6.03;;;2.83;;
18568;SDS011;14780;48.316;-1.050;2023-10-19T00:55:33;6.07;;;2.80;;
18568;SDS011;14780;48.316;-1.050;2023-10-19T00:58:18;7.87;;;3.23;;
18568;SDS011;14780;48.316;-1.050;2023-10-19T01:01:11;7.22;;;3.10;;
18568;SDS011;14780;48.316;-1.050;2023-10-19T01:03:56;6.18;;;2.90;;
18568;SDS011;14780;48.316;-1.050;2023-10-19T01:06:41;6.07;;;2.90;;
18568;SDS011;14780;48.316;-1.050;2023-10-19T01:09:43;7.18;;;3.03;;
18568;SDS011;14780;48.316;-1.050;2023-10-19T01:12:29;6.95;;;2.85;;
18568;SDS011;14780;48.316;-1.050;2023-10-19T01:15:17;7.50;;;3.15;;
18568;SDS011;14780;48.316;-1.050;2023-10-19T01:18:12;8.13;;;2.90;;
18568;SDS011;14780;48.316;-1.050;2023-10-19T01:20:58;6.63;;;3.20;;
18568;SDS011;14780;48.316;-1.050;2023-10-19T01:23:48;6.20;;;2.95;;
18568;SDS011;14780;48.316;-1.050;2023-10-19T01:26:34;7.05;;;3.10;;
18568;SDS011;14780;48.316;-1.050;2023-10-19T01:29:21;6.25;;;2.90;;
18568;SDS011;14780;48.316;-1.050;2023-10-19T01:32:11;10.32;;;2.90;;
18568;SDS011;14780;48.316;-1.050;2023-10-19T01:34:59;6.57;;;2.88;;
18568;SDS011;14780;48.316;-1.050;2023-10-19T01:37:43;7.55;;;3.10;;
18568;SDS011;14780;48.316;-1.050;2023-10-19T01:40:28;7.28;;;3.22;;
18568;SDS011;14780;48.316;-1.050;2023-10-19T01:43:14;6.18;;;2.78;;
18568;SDS011;14780;48.316;-1.050;2023-10-19T01:46:05;8.00;;;3.20;;
18568;SDS011;14780;48.316;-1.050;2023-10-19T01:48:56;6.18;;;2.95;;
18568;SDS011;14780;48.316;-1.050;2023-10-19T01:51:41;8.02;;;3.42;;
18568;SDS011;14780;48.316;-1.050;2023-10-19T01:54:27;7.00;;;3.00;;
18568;SDS011;14780;48.316;-1.050;2023-10-19T01:57:12;6.35;;;3.28;;
18568;SDS011;14780;48.316;-1.050;2023-10-19T01:59:58;6.95;;;3.10;;
18568;SDS011;14780;48.316;-1.050;2023-10-19T02:02:42;6.60;;;2.88;;
18568;SDS011;14780;48.316;-1.050;2023-10-19T02:05:27;6.30;;;2.92;;
18568;SDS011;14780;48.316;-1.050;2023-10-19T02:08:23;5.78;;;3.00;;
18568;SDS011;14780;48.316;-1.050;2023-10-19T02:11:10;7.43;;;3.13;;
18568;SDS011;14780;48.316;-1.050;2023-10-19T02:14:01;9.57;;;3.00;;
18568;SDS011;14780;48.316;-1.050;2023-10-19T02:16:56;7.63;;;3.25;;
18568;SDS011;14780;48.316;-1.050;2023-10-19T02:19:43;6.93;;;2.90;;
18568;SDS011;14780;48.316;-1.050;2023-10-19T02:22:27;7.70;;;3.00;;
18568;SDS011;14780;48.316;-1.050;2023-10-19T02:25:12;6.68;;;3.03;;
18568;SDS011;14780;48.316;-1.050;2023-10-19T02:27:57;5.85;;;2.50;;
18568;SDS011;14780;48.316;-1.050;2023-10-19T02:30:42;5.95;;;2.92;;
18568;SDS011;14780;48.316;-1.050;2023-10-19T02:33:27;8.63;;;3.38;;
18568;SDS011;14780;48.316;-1.050;2023-10-19T02:36:13;7.60;;;3.20;;
18568;SDS011;14780;48.316;-1.050;2023-10-19T02:39:00;5.38;;;2.83;;
18568;SDS011;14780;48.316;-1.050;2023-10-19T02:41:51;7.45;;;3.00;;
18568;SDS011;14780;48.316;-1.050;2023-10-19T02:44:37;6.80;;;2.90;;
18568;SDS011;14780;48.316;-1.050;2023-10-19T02:47:22;6.28;;;2.80;;
18568;SDS011;14780;48.316;-1.050;2023-10-19T02:50:07;5.17;;;2.90;;
18568;SDS011;14780;48.316;-1.050;2023-10-19T02:52:57;6.00;;;2.63;;
18568;SDS011;14780;48.316;-1.050;2023-10-19T02:55:42;6.72;;;2.70;;
18568;SDS011;14780;48.316;-1.050;2023-10-19T02:58:27;5.30;;;3.00;;
18568;SDS011;14780;48.316;-1.050;2023-10-19T03:01:13;6.47;;;2.88;;
18568;SDS011;14780;48.316;-1.050;2023-10-19T03:04:05;5.68;;;2.60;;
18568;SDS011;14780;48.316;-1.050;2023-10-19T03:06:49;6.40;;;3.05;;
18568;SDS011;14780;48.316;-1.050;2023-10-19T03:09:35;5.78;;;2.70;;
18568;SDS011;14780;48.316;-1.050;2023-10-19T03:12:20;6.90;;;2.92;;
18568;SDS011;14780;48.316;-1.050;2023-10-19T03:15:10;6.10;;;2.78;;
18568;SDS011;14780;48.316;-1.050;2023-10-19T03:17:57;8.27;;;3.00;;
18568;SDS011;14780;48.316;-1.050;2023-10-19T03:20:44;5.40;;;2.60;;
18568;SDS011;14780;48.316;-1.050;2023-10-19T03:23:28;7.80;;;3.10;;
18568;SDS011;14780;48.316;-1.050;2023-10-19T03:26:15;6.38;;;2.90;;
18568;SDS011;14780;48.316;-1.050;2023-10-19T03:29:20;6.47;;;2.90;;
18568;SDS011;14780;48.316;-1.050;2023-10-19T03:32:31;4.85;;;2.83;;
18568;SDS011;14780;48.316;-1.050;2023-10-19T03:35:16;7.07;;;2.80;;
18568;SDS011;14780;48.316;-1.050;2023-10-19T03:38:01;6.70;;;2.60;;
18568;SDS011;14780;48.316;-1.050;2023-10-19T03:40:52;5.57;;;2.70;;
18568;SDS011;14780;48.316;-1.050;2023-10-19T03:43:43;7.10;;;3.05;;
18568;SDS011;14780;48.316;-1.050;2023-10-19T03:46:29;6.30;;;2.85;;
18568;SDS011;14780;48.316;-1.050;2023-10-19T03:49:21;5.68;;;2.83;;
18568;SDS011;14780;48.316;-1.050;2023-10-19T03:52:07;5.43;;;2.42;;
18568;SDS011;14780;48.316;-1.050;2023-10-19T03:54:52;7.40;;;2.70;;
18568;SDS011;14780;48.316;-1.050;2023-10-19T03:57:37;5.65;;;2.40;;
18568;SDS011;14780;48.316;-1.050;2023-10-19T04:00:25;8.23;;;2.95;;
18568;SDS011;14780;48.316;-1.050;2023-10-19T04:03:12;5.27;;;2.40;;
18568;SDS011;14780;48.316;-1.050;2023-10-19T04:05:57;4.07;;;2.40;;
18568;SDS011;14780;48.316;-1.050;2023-10-19T04:08:44;5.25;;;2.42;;
18568;SDS011;14780;48.316;-1.050;2023-10-19T04:11:34;4.43;;;2.53;;
18568;SDS011;14780;48.316;-1.050;2023-10-19T04:14:34;4.88;;;2.40;;
18568;SDS011;14780;48.316;-1.050;2023-10-19T04:17:19;5.57;;;2.90;;
18568;SDS011;14780;48.316;-1.050;2023-10-19T04:20:07;6.28;;;2.65;;
18568;SDS011;14780;48.316;-1.050;2023-10-19T04:23:02;3.88;;;2.42;;
18568;SDS011;14780;48.316;-1.050;2023-10-19T04:25:54;5.32;;;2.47;;
18568;SDS011;14780;48.316;-1.050;2023-10-19T04:28:47;4.43;;;2.40;;
18568;SDS011;14780;48.316;-1.050;2023-10-19T04:31:35;5.13;;;2.50;;
18568;SDS011;14780;48.316;-1.050;2023-10-19T04:34:38;5.25;;;2.55;;
18568;SDS011;14780;48.316;-1.050;2023-10-19T04:37:23;5.18;;;2.47;;
18568;SDS011;14780;48.316;-1.050;2023-10-19T04:40:08;4.65;;;2.30;;
18568;SDS011;14780;48.316;-1.050;2023-10-19T04:42:53;5.33;;;2.40;;
18568;SDS011;14780;48.316;-1.050;2023-10-19T04:45:39;5.47;;;2.28;;
18568;SDS011;14780;48.316;-1.050;2023-10-19T04:48:24;4.70;;;2.38;;
18568;SDS011;14780;48.316;-1.050;2023-10-19T04:51:10;3.63;;;2.10;;
18568;SDS011;14780;48.316;-1.050;2023-10-19T04:53:56;4.30;;;2.20;;
18568;SDS011;14780;48.316;-1.050;2023-10-19T04:56:40;4.13;;;2.35;;
18568;SDS011;14780;48.316;-1.050;2023-10-19T04:59:25;4.23;;;2.50;;
18568;SDS011;14780;48.316;-1.050;2023-10-19T05:02:09;4.85;;;2.28;;
18568;SDS011;14780;48.316;-1.050;2023-10-19T05:04:55;4.45;;;2.40;;
18568;SDS011;14780;48.316;-1.050;2023-10-19T05:07:39;3.75;;;2.30;;
18568;SDS011;14780;48.316;-1.050;2023-10-19T05:10:24;3.78;;;1.95;;
18568;SDS011;14780;48.316;-1.050;2023-10-19T05:13:08;6.10;;;2.40;;
18568;SDS011;14780;48.316;-1.050;2023-10-19T05:15:54;4.00;;;2.23;;
18568;SDS011;14780;48.316;-1.050;2023-10-19T05:18:40;3.47;;;2.08;;
18568;SDS011;14780;48.316;-1.050;2023-10-19T05:21:24;3.45;;;2.05;;
18568;SDS011;14780;48.316;-1.050;2023-10-19T05:24:09;4.03;;;2.40;;
18568;SDS011;14780;48.316;-1.050;2023-10-19T05:26:54;3.80;;;1.98;;
18568;SDS011;14780;48.316;-1.050;2023-10-19T05:29:39;4.68;;;2.10;;
18568;SDS011;14780;48.316;-1.050;2023-10-19T05:32:24;4.75;;;2.20;;
18568;SDS011;14780;48.316;-1.050;2023-10-19T05:35:09;3.00;;;2.00;;
18568;SDS011;14780;48.316;-1.050;2023-10-19T05:37:56;4.00;;;2.07;;
18568;SDS011;14780;48.316;-1.050;2023-10-19T05:40:42;3.28;;;1.98;;
18568;SDS011;14780;48.316;-1.050;2023-10-19T05:43:27;4.80;;;2.05;;
18568;SDS011;14780;48.316;-1.050;2023-10-19T05:46:12;3.70;;;2.20;;
18568;SDS011;14780;48.316;-1.050;2023-10-19T05:48:58;3.55;;;2.17;;
18568;SDS011;14780;48.316;-1.050;2023-10-19T05:51:45;3.80;;;2.10;;
18568;SDS011;14780;48.316;-1.050;2023-10-19T05:54:29;3.42;;;2.00;;
18568;SDS011;14780;48.316;-1.050;2023-10-19T05:57:14;3.63;;;1.90;;
18568;SDS011;14780;48.316;-1.050;2023-10-19T06:00:00;3.42;;;2.20;;
18568;SDS011;14780;48.316;-1.050;2023-10-19T06:02:45;4.85;;;2.08;;
18568;SDS011;14780;48.316;-1.050;2023-10-19T06:05:35;4.45;;;2.25;;
18568;SDS011;14780;48.316;-1.050;2023-10-19T06:08:20;4.57;;;2.10;;
18568;SDS011;14780;48.316;-1.050;2023-10-19T06:11:04;3.47;;;1.90;;
18568;SDS011;14780;48.316;-1.050;2023-10-19T06:13:50;3.93;;;2.13;;
18568;SDS011;14780;48.316;-1.050;2023-10-19T06:16:35;2.88;;;1.80;;
18568;SDS011;14780;48.316;-1.050;2023-10-19T06:19:20;2.88;;;1.77;;
18568;SDS011;14780;48.316;-1.050;2023-10-19T06:22:06;3.53;;;2.10;;
18568;SDS011;14780;48.316;-1.050;2023-10-19T06:24:51;4.60;;;1.95;;
18568;SDS011;14780;48.316;-1.050;2023-10-19T06:27:36;4.25;;;2.00;;
18568;SDS011;14780;48.316;-1.050;2023-10-19T06:30:21;4.57;;;1.80;;
18568;SDS011;14780;48.316;-1.050;2023-10-19T06:33:06;4.63;;;2.07;;
18568;SDS011;14780;48.316;-1.050;2023-10-19T06:35:51;3.78;;;2.00;;
18568;SDS011;14780;48.316;-1.050;2023-10-19T06:38:36;3.43;;;1.97;;
18568;SDS011;14780;48.316;-1.050;2023-10-19T06:41:20;5.55;;;2.20;;
18568;SDS011;14780;48.316;-1.050;2023-10-19T06:44:06;2.67;;;1.70;;
18568;SDS011;14780;48.316;-1.050;2023-10-19T06:46:50;4.00;;;2.15;;
18568;SDS011;14780;48.316;-1.050;2023-10-19T06:49:35;3.88;;;1.95;;
18568;SDS011;14780;48.316;-1.050;2023-10-19T06:52:20;5.27;;;2.10;;
18568;SDS011;14780;48.316;-1.050;2023-10-19T06:55:06;6.05;;;2.20;;
18568;SDS011;14780;48.316;-1.050;2023-10-19T06:58:00;9.10;;;2.45;;
18568;SDS011;14780;48.316;-1.050;2023-10-19T07:00:45;6.35;;;2.38;;
18568;SDS011;14780;48.316;-1.050;2023-10-19T07:03:39;7.43;;;2.42;;
18568;SDS011;14780;48.316;-1.050;2023-10-19T07:06:25;6.55;;;2.40;;
18568;SDS011;14780;48.316;-1.050;2023-10-19T07:09:10;4.97;;;1.93;;
18568;SDS011;14780;48.316;-1.050;2023-10-19T07:11:55;4.78;;;2.30;;
18568;SDS011;14780;48.316;-1.050;2023-10-19T07:14:40;5.93;;;2.08;;
18568;SDS011;14780;48.316;-1.050;2023-10-19T07:17:25;6.75;;;2.33;;
18568;SDS011;14780;48.316;-1.050;2023-10-19T07:20:11;4.82;;;2.10;;
18568;SDS011;14780;48.316;-1.050;2023-10-19T07:23:10;4.95;;;2.22;;
18568;SDS011;14780;48.316;-1.050;2023-10-19T07:26:04;6.50;;;2.45;;
18568;SDS011;14780;48.316;-1.050;2023-10-19T07:28:50;4.72;;;2.28;;
18568;SDS011;14780;48.316;-1.050;2023-10-19T07:31:34;4.57;;;2.10;;
18568;SDS011;14780;48.316;-1.050;2023-10-19T07:34:19;4.90;;;2.13;;
18568;SDS011;14780;48.316;-1.050;2023-10-19T07:37:08;5.70;;;2.30;;
18568;SDS011;14780;48.316;-1.050;2023-10-19T07:39:58;4.47;;;2.13;;
18568;SDS011;14780;48.316;-1.050;2023-10-19T07:42:44;4.32;;;2.10;;
18568;SDS011;14780;48.316;-1.050;2023-10-19T07:45:30;4.97;;;2.33;;
18568;SDS011;14780;48.316;-1.050;2023-10-19T07:48:15;6.63;;;2.50;;
18568;SDS011;14780;48.316;-1.050;2023-10-19T07:51:00;4.80;;;2.10;;
18568;SDS011;14780;48.316;-1.050;2023-10-19T07:53:45;8.82;;;2.22;;
18568;SDS011;14780;48.316;-1.050;2023-10-19T07:56:30;5.43;;;2.20;;
18568;SDS011;14780;48.316;-1.050;2023-10-19T07:59:16;5.05;;;2.10;;
18568;SDS011;14780;48.316;-1.050;2023-10-19T08:02:01;6.88;;;2.03;;
18568;SDS011;14780;48.316;-1.050;2023-10-19T08:04:47;5.97;;;2.40;;
18568;SDS011;14780;48.316;-1.050;2023-10-19T08:07:32;4.32;;;2.15;;
18568;SDS011;14780;48.316;-1.050;2023-10-19T08:10:20;5.00;;;2.10;;
18568;SDS011;14780;48.316;-1.050;2023-10-19T08:13:05;3.95;;;2.03;;
18568;SDS011;14780;48.316;-1.050;2023-10-19T08:15:50;5.90;;;2.37;;
18568;SDS011;14780;48.316;-1.050;2023-10-19T08:18:35;4.10;;;2.22;;
18568;SDS011;14780;48.316;-1.050;2023-10-19T08:21:20;4.05;;;2.22;;
18568;SDS011;14780;48.316;-1.050;2023-10-19T08:24:05;4.97;;;1.98;;
18568;SDS011;14780;48.316;-1.050;2023-10-19T08:26:50;5.10;;;2.20;;
18568;SDS011;14780;48.316;-1.050;2023-10-19T08:29:35;6.20;;;2.20;;
18568;SDS011;14780;48.316;-1.050;2023-10-19T08:32:19;4.10;;;2.00;;
18568;SDS011;14780;48.316;-1.050;2023-10-19T08:35:04;5.15;;;2.53;;
18568;SDS011;14780;48.316;-1.050;2023-10-19T08:37:49;4.63;;;2.13;;
18568;SDS011;14780;48.316;-1.050;2023-10-19T08:40:37;5.03;;;2.17;;
18568;SDS011;14780;48.316;-1.050;2023-10-19T08:43:23;5.93;;;2.20;;
18568;SDS011;14780;48.316;-1.050;2023-10-19T08:46:09;4.90;;;2.40;;
18568;SDS011;14780;48.316;-1.050;2023-10-19T08:48:55;5.63;;;2.60;;
18568;SDS011;14780;48.316;-1.050;2023-10-19T08:51:44;5.82;;;2.63;;
18568;SDS011;14780;48.316;-1.050;2023-10-19T08:54:30;3.92;;;2.17;;
18568;SDS011;14780;48.316;-1.050;2023-10-19T08:57:17;5.20;;;2.22;;
18568;SDS011;14780;48.316;-1.050;2023-10-19T09:00:02;5.05;;;2.40;;
18568;SDS011;14780;48.316;-1.050;2023-10-19T09:02:53;5.97;;;2.60;;
18568;SDS011;14780;48.316;-1.050;2023-10-19T09:05:40;5.38;;;2.30;;
18568;SDS011;14780;48.316;-1.050;2023-10-19T09:08:25;3.60;;;1.90;;
18568;SDS011;14780;48.316;-1.050;2023-10-19T09:11:21;4.25;;;2.13;;
18568;SDS011;14780;48.316;-1.050;2023-10-19T09:14:09;3.92;;;2.13;;
18568;SDS011;14780;48.316;-1.050;2023-10-19T09:16:57;3.17;;;2.03;;
18568;SDS011;14780;48.316;-1.050;2023-10-19T09:19:42;5.97;;;2.28;;
18568;SDS011;14780;48.316;-1.050;2023-10-19T09:22:34;4.65;;;2.35;;
18568;SDS011;14780;48.316;-1.050;2023-10-19T09:25:27;5.32;;;2.25;;
18568;SDS011;14780;48.316;-1.050;2023-10-19T09:28:12;4.80;;;2.47;;
18568;SDS011;14780;48.316;-1.050;2023-10-19T09:30:57;4.07;;;2.50;;
18568;SDS011;14780;48.316;-1.050;2023-10-19T09:33:43;5.43;;;2.27;;
18568;SDS011;14780;48.316;-1.050;2023-10-19T09:36:30;6.15;;;2.50;;
18568;SDS011;14780;48.316;-1.050;2023-10-19T09:39:16;5.43;;;2.25;;
18568;SDS011;14780;48.316;-1.050;2023-10-19T09:42:01;6.30;;;2.87;;
18568;SDS011;14780;48.316;-1.050;2023-10-19T09:44:53;4.82;;;2.30;;
18568;SDS011;14780;48.316;-1.050;2023-10-19T09:47:50;4.33;;;2.30;;
18568;SDS011;14780;48.316;-1.050;2023-10-19T09:50:35;5.03;;;2.33;;
18568;SDS011;14780;48.316;-1.050;2023-10-19T09:53:26;6.78;;;2.58;;
18568;SDS011;14780;48.316;-1.050;2023-10-19T09:56:15;4.70;;;2.42;;
18568;SDS011;14780;48.316;-1.050;2023-10-19T09:59:11;4.50;;;2.45;;
18568;SDS011;14780;48.316;-1.050;2023-10-19T10:02:13;6.03;;;2.75;;
18568;SDS011;14780;48.316;-1.050;2023-10-19T10:05:01;4.78;;;2.13;;
18568;SDS011;14780;48.316;-1.050;2023-10-19T10:07:48;5.32;;;2.30;;
18568;SDS011;14780;48.316;-1.050;2023-10-19T10:11:16;4.60;;;2.35;;
18568;SDS011;14780;48.316;-1.050;2023-10-19T10:14:19;4.18;;;2.38;;
18568;SDS011;14780;48.316;-1.050;2023-10-19T10:17:18;6.22;;;2.72;;
18568;SDS011;14780;48.316;-1.050;2023-10-19T10:23:18;6.93;;;2.35;;
18568;SDS011;14780;48.316;-1.050;2023-10-19T10:26:16;5.30;;;2.70;;
18568;SDS011;14780;48.316;-1.050;2023-10-19T10:29:21;6.28;;;2.63;;
18568;SDS011;14780;48.316;-1.050;2023-10-19T10:32:10;5.70;;;2.97;;
18568;SDS011;14780;48.316;-1.050;2023-10-19T10:34:56;6.28;;;2.78;;
18568;SDS011;14780;48.316;-1.050;2023-10-19T10:37:41;4.65;;;2.38;;
18568;SDS011;14780;48.316;-1.050;2023-10-19T10:40:48;6.93;;;2.80;;
18568;SDS011;14780;48.316;-1.050;2023-10-19T10:43:33;8.15;;;2.90;;
18568;SDS011;14780;48.316;-1.050;2023-10-19T10:46:31;6.57;;;2.60;;
18568;SDS011;14780;48.316;-1.050;2023-10-19T10:49:15;7.88;;;2.55;;
18568;SDS011;14780;48.316;-1.050;2023-10-19T10:52:00;5.60;;;2.43;;
18568;SDS011;14780;48.316;-1.050;2023-10-19T10:54:45;7.80;;;2.90;;
18568;SDS011;14780;48.316;-1.050;2023-10-19T10:57:30;10.10;;;3.25;;
18568;SDS011;14780;48.316;-1.050;2023-10-19T11:00:17;8.57;;;3.60;;
18568;SDS011;14780;48.316;-1.050;2023-10-19T11:03:07;8.82;;;3.38;;
18568;SDS011;14780;48.316;-1.050;2023-10-19T11:05:53;11.15;;;4.20;;
18568;SDS011;14780;48.316;-1.050;2023-10-19T11:08:38;9.10;;;3.53;;
18568;SDS011;14780;48.316;-1.050;2023-10-19T11:11:23;12.83;;;4.00;;
18568;SDS011;14780;48.316;-1.050;2023-10-19T11:14:08;12.30;;;4.20;;
18568;SDS011;14780;48.316;-1.050;2023-10-19T11:16:54;10.43;;;4.20;;
18568;SDS011;14780;48.316;-1.050;2023-10-19T11:19:55;10.93;;;4.45;;
18568;SDS011;14780;48.316;-1.050;2023-10-19T11:22:49;11.77;;;4.40;;
18568;SDS011;14780;48.316;-1.050;2023-10-19T11:25:36;14.93;;;4.50;;
18568;SDS011;14780;48.316;-1.050;2023-10-19T11:28:21;13.18;;;4.22;;
18568;SDS011;14780;48.316;-1.050;2023-10-19T11:31:16;10.48;;;4.20;;
18568;SDS011;14780;48.316;-1.050;2023-10-19T11:34:02;10.95;;;4.15;;
18568;SDS011;14780;48.316;-1.050;2023-10-19T11:36:52;8.43;;;3.75;;
18568;SDS011;14780;48.316;-1.050;2023-10-19T11:39:40;9.77;;;3.60;;
18568;SDS011;14780;48.316;-1.050;2023-10-19T11:42:25;10.40;;;4.10;;
18568;SDS011;14780;48.316;-1.050;2023-10-19T11:45:10;10.32;;;4.20;;
18568;SDS011;14780;48.316;-1.050;2023-10-19T11:47:55;10.82;;;3.90;;
18568;SDS011;14780;48.316;-1.050;2023-10-19T11:50:40;9.50;;;3.92;;
18568;SDS011;14780;48.316;-1.050;2023-10-19T11:53:24;11.25;;;4.18;;
18568;SDS011;14780;48.316;-1.050;2023-10-19T11:56:10;9.77;;;3.80;;
18568;SDS011;14780;48.316;-1.050;2023-10-19T11:59:00;11.75;;;4.10;;
18568;SDS011;14780;48.316;-1.050;2023-10-19T12:01:45;8.23;;;3.60;;
18568;SDS011;14780;48.316;-1.050;2023-10-19T12:04:31;11.15;;;4.07;;
18568;SDS011;14780;48.316;-1.050;2023-10-19T12:07:19;9.93;;;3.58;;
18568;SDS011;14780;48.316;-1.050;2023-10-19T12:10:05;9.73;;;4.10;;
18568;SDS011;14780;48.316;-1.050;2023-10-19T12:12:52;8.38;;;3.47;;
18568;SDS011;14780;48.316;-1.050;2023-10-19T12:15:36;9.37;;;3.40;;
18568;SDS011;14780;48.316;-1.050;2023-10-19T12:18:21;8.75;;;3.58;;
18568;SDS011;14780;48.316;-1.050;2023-10-19T12:21:06;7.00;;;3.30;;
18568;SDS011;14780;48.316;-1.050;2023-10-19T12:23:55;7.07;;;3.60;;
18568;SDS011;14780;48.316;-1.050;2023-10-19T12:26:40;7.43;;;3.13;;
18568;SDS011;14780;48.316;-1.050;2023-10-19T12:29:25;7.22;;;3.53;;
18568;SDS011;14780;48.316;-1.050;2023-10-19T12:32:10;7.72;;;3.50;;
18568;SDS011;14780;48.316;-1.050;2023-10-19T12:34:56;7.75;;;3.22;;
18568;SDS011;14780;48.316;-1.050;2023-10-19T12:37:41;7.95;;;3.00;;
18568;SDS011;14780;48.316;-1.050;2023-10-19T12:40:34;10.23;;;2.85;;
18568;SDS011;14780;48.316;-1.050;2023-10-19T12:43:19;7.45;;;3.10;;
18568;SDS011;14780;48.316;-1.050;2023-10-19T12:46:07;9.52;;;3.13;;
18568;SDS011;14780;48.316;-1.050;2023-10-19T12:48:52;6.00;;;3.33;;
18568;SDS011;14780;48.316;-1.050;2023-10-19T12:51:40;6.10;;;3.05;;
18568;SDS011;14780;48.316;-1.050;2023-10-19T12:54:26;7.50;;;3.07;;
18568;SDS011;14780;48.316;-1.050;2023-10-19T12:57:11;5.97;;;2.70;;
18568;SDS011;14780;48.316;-1.050;2023-10-19T12:59:56;5.97;;;2.70;;
18568;SDS011;14780;48.316;-1.050;2023-10-19T13:02:40;5.72;;;3.00;;
18568;SDS011;14780;48.316;-1.050;2023-10-19T13:05:31;7.07;;;3.42;;
18568;SDS011;14780;48.316;-1.050;2023-10-19T13:08:17;7.72;;;3.10;;
18568;SDS011;14780;48.316;-1.050;2023-10-19T13:11:02;7.82;;;3.10;;
18568;SDS011;14780;48.316;-1.050;2023-10-19T13:13:46;6.38;;;3.13;;
18568;SDS011;14780;48.316;-1.050;2023-10-19T13:16:31;5.45;;;2.70;;
18568;SDS011;14780;48.316;-1.050;2023-10-19T13:19:16;6.65;;;3.00;;
18568;SDS011;14780;48.316;-1.050;2023-10-19T13:22:04;5.82;;;2.80;;
18568;SDS011;14780;48.316;-1.050;2023-10-19T13:24:51;5.57;;;2.75;;
18568;SDS011;14780;48.316;-1.050;2023-10-19T13:27:36;8.10;;;3.07;;
18568;SDS011;14780;48.316;-1.050;2023-10-19T13:30:20;6.65;;;3.03;;
18568;SDS011;14780;48.316;-1.050;2023-10-19T13:33:06;6.23;;;2.90;;
18568;SDS011;14780;48.316;-1.050;2023-10-19T13:35:54;6.03;;;2.92;;
18568;SDS011;14780;48.316;-1.050;2023-10-19T13:38:39;7.53;;;3.13;;
18568;SDS011;14780;48.316;-1.050;2023-10-19T13:41:24;6.43;;;2.90;;
18568;SDS011;14780;48.316;-1.050;2023-10-19T13:44:09;7.13;;;2.70;;
18568;SDS011;14780;48.316;-1.050;2023-10-19T13:46:55;6.18;;;2.97;;
18568;SDS011;14780;48.316;-1.050;2023-10-19T13:49:40;5.13;;;2.47;;
18568;SDS011;14780;48.316;-1.050;2023-10-19T13:52:25;6.65;;;2.92;;
18568;SDS011;14780;48.316;-1.050;2023-10-19T13:55:10;6.25;;;3.03;;
18568;SDS011;14780;48.316;-1.050;2023-10-19T13:57:56;5.38;;;2.55;;
18568;SDS011;14780;48.316;-1.050;2023-10-19T14:00:41;6.00;;;2.70;;
18568;SDS011;14780;48.316;-1.050;2023-10-19T14:03:27;6.15;;;2.67;;
18568;SDS011;14780;48.316;-1.050;2023-10-19T14:06:14;10.52;;;2.85;;
18568;SDS011;14780;48.316;-1.050;2023-10-19T14:09:00;9.53;;;3.00;;
18568;SDS011;14780;48.316;-1.050;2023-10-19T14:11:45;6.22;;;2.95;;
18568;SDS011;14780;48.316;-1.050;2023-10-19T14:14:30;6.70;;;3.20;;
18568;SDS011;14780;48.316;-1.050;2023-10-19T14:17:15;10.65;;;3.20;;
18568;SDS011;14780;48.316;-1.050;2023-10-19T14:19:59;9.35;;;3.28;;
18568;SDS011;14780;48.316;-1.050;2023-10-19T14:22:45;9.02;;;3.45;;
18568;SDS011;14780;48.316;-1.050;2023-10-19T14:25:36;7.30;;;3.05;;
18568;SDS011;14780;48.316;-1.050;2023-10-19T14:28:26;7.57;;;2.80;;
18568;SDS011;14780;48.316;-1.050;2023-10-19T14:31:11;9.85;;;3.50;;
18568;SDS011;14780;48.316;-1.050;2023-10-19T14:33:57;8.85;;;3.20;;
18568;SDS011;14780;48.316;-1.050;2023-10-19T14:36:42;7.27;;;3.17;;
18568;SDS011;14780;48.316;-1.050;2023-10-19T14:39:26;9.45;;;3.30;;
18568;SDS011;14780;48.316;-1.050;2023-10-19T14:42:11;7.93;;;2.85;;
18568;SDS011;14780;48.316;-1.050;2023-10-19T14:44:56;7.63;;;2.90;;
18568;SDS011;14780;48.316;-1.050;2023-10-19T14:47:42;6.93;;;2.90;;
18568;SDS011;14780;48.316;-1.050;2023-10-19T14:50:32;6.97;;;2.70;;
18568;SDS011;14780;48.316;-1.050;2023-10-19T14:53:17;11.23;;;3.20;;
18568;SDS011;14780;48.316;-1.050;2023-10-19T14:56:02;7.78;;;3.00;;
18568;SDS011;14780;48.316;-1.050;2023-10-19T14:58:47;6.25;;;2.95;;
18568;SDS011;14780;48.316;-1.050;2023-10-19T15:01:31;4.78;;;2.47;;
18568;SDS011;14780;48.316;-1.050;2023-10-19T15:04:16;8.52;;;2.88;;
18568;SDS011;14780;48.316;-1.050;2023-10-19T15:07:01;7.53;;;2.95;;
18568;SDS011;14780;48.316;-1.050;2023-10-19T15:09:46;6.28;;;3.08;;
18568;SDS011;14780;48.316;-1.050;2023-10-19T15:12:31;5.90;;;2.95;;
18568;SDS011;14780;48.316;-1.050;2023-10-19T15:15:15;6.90;;;2.97;;
18568;SDS011;14780;48.316;-1.050;2023-10-19T15:18:00;6.82;;;2.80;;
18568;SDS011;14780;48.316;-1.050;2023-10-19T15:20:45;7.70;;;2.95;;
18568;SDS011;14780;48.316;-1.050;2023-10-19T15:23:29;7.10;;;3.05;;
18568;SDS011;14780;48.316;-1.050;2023-10-19T15:26:17;6.40;;;2.88;;
18568;SDS011;14780;48.316;-1.050;2023-10-19T15:29:02;6.50;;;2.83;;
18568;SDS011;14780;48.316;-1.050;2023-10-19T15:31:47;6.18;;;2.67;;
18568;SDS011;14780;48.316;-1.050;2023-10-19T15:34:32;7.68;;;2.90;;
18568;SDS011;14780;48.316;-1.050;2023-10-19T15:37:18;7.18;;;2.70;;
18568;SDS011;14780;48.316;-1.050;2023-10-19T15:40:04;6.30;;;2.70;;
18568;SDS011;14780;48.316;-1.050;2023-10-19T15:42:49;5.30;;;2.63;;
18568;SDS011;14780;48.316;-1.050;2023-10-19T15:45:37;6.18;;;3.00;;
18568;SDS011;14780;48.316;-1.050;2023-10-19T15:48:23;6.25;;;2.80;;
18568;SDS011;14780;48.316;-1.050;2023-10-19T15:51:07;6.55;;;2.80;;
18568;SDS011;14780;48.316;-1.050;2023-10-19T15:53:53;8.85;;;2.85;;
18568;SDS011;14780;48.316;-1.050;2023-10-19T15:56:38;5.30;;;2.70;;
18568;SDS011;14780;48.316;-1.050;2023-10-19T15:59:23;5.63;;;2.40;;
18568;SDS011;14780;48.316;-1.050;2023-10-19T16:02:08;5.78;;;2.75;;
18568;SDS011;14780;48.316;-1.050;2023-10-19T16:04:54;6.25;;;2.80;;
18568;SDS011;14780;48.316;-1.050;2023-10-19T16:07:38;5.30;;;2.60;;
18568;SDS011;14780;48.316;-1.050;2023-10-19T16:10:23;7.18;;;3.03;;
18568;SDS011;14780;48.316;-1.050;2023-10-19T16:13:07;7.30;;;2.75;;
18568;SDS011;14780;48.316;-1.050;2023-10-19T16:15:52;6.95;;;2.92;;
18568;SDS011;14780;48.316;-1.050;2023-10-19T16:18:37;5.50;;;2.65;;
18568;SDS011;14780;48.316;-1.050;2023-10-19T16:21:22;7.05;;;2.92;;
18568;SDS011;14780;48.316;-1.050;2023-10-19T16:24:09;6.10;;;2.70;;
18568;SDS011;14780;48.316;-1.050;2023-10-19T16:26:55;6.88;;;2.70;;
18568;SDS011;14780;48.316;-1.050;2023-10-19T16:29:40;8.10;;;3.00;;
18568;SDS011;14780;48.316;-1.050;2023-10-19T16:32:26;8.60;;;2.80;;
18568;SDS011;14780;48.316;-1.050;2023-10-19T16:35:13;8.97;;;2.83;;